sensor_id;sensor_type;location;lat;lon;timestamp;P1;durP1;ratioP1;P2;durP2;ratioP2
76667;SDS011;65585;51.166;16.922;2023-05-07T00:00:59;8.23;;;4.82;;
76667;SDS011;65585;51.166;16.922;2023-05-07T00:03:25;6.80;;;4.90;;
76667;SDS011;65585;51.166;16.922;2023-05-07T00:05:52;5.82;;;4.53;;
76667;SDS011;65585;51.166;16.922;2023-05-07T00:08:18;6.05;;;4.80;;
76667;SDS011;65585;51.166;16.922;2023-05-07T00:10:46;7.22;;;5.03;;
76667;SDS011;65585;51.166;16.922;2023-05-07T00:13:12;6.35;;;4.80;;
76667;SDS011;65585;51.166;16.922;2023-05-07T00:15:40;8.07;;;5.28;;
76667;SDS011;65585;51.166;16.922;2023-05-07T00:18:06;6.97;;;4.78;;
76667;SDS011;65585;51.166;16.922;2023-05-07T00:20:32;7.40;;;5.03;;
76667;SDS011;65585;51.166;16.922;2023-05-07T00:22:58;6.15;;;4.72;;
76667;SDS011;65585;51.166;16.922;2023-05-07T00:25:24;7.03;;;5.22;;
76667;SDS011;65585;51.166;16.922;2023-05-07T00:27:50;6.88;;;4.93;;
76667;SDS011;65585;51.166;16.922;2023-05-07T00:30:16;6.10;;;4.60;;
76667;SDS011;65585;51.166;16.922;2023-05-07T00:32:42;8.45;;;5.35;;
76667;SDS011;65585;51.166;16.922;2023-05-07T00:35:11;5.68;;;4.32;;
76667;SDS011;65585;51.166;16.922;2023-05-07T00:37:38;5.85;;;4.68;;
76667;SDS011;65585;51.166;16.922;2023-05-07T00:40:04;6.15;;;4.95;;
76667;SDS011;65585;51.166;16.922;2023-05-07T00:42:32;7.32;;;4.60;;
76667;SDS011;65585;51.166;16.922;2023-05-07T00:44:58;8.23;;;4.93;;
76667;SDS011;65585;51.166;16.922;2023-05-07T00:47:24;7.40;;;4.80;;
76667;SDS011;65585;51.166;16.922;2023-05-07T00:49:51;6.10;;;4.70;;
76667;SDS011;65585;51.166;16.922;2023-05-07T00:52:17;7.45;;;4.80;;
76667;SDS011;65585;51.166;16.922;2023-05-07T00:54:46;5.93;;;4.75;;
76667;SDS011;65585;51.166;16.922;2023-05-07T00:57:12;6.03;;;4.93;;
76667;SDS011;65585;51.166;16.922;2023-05-07T00:59:39;9.98;;;5.43;;
76667;SDS011;65585;51.166;16.922;2023-05-07T01:02:06;7.80;;;5.07;;
76667;SDS011;65585;51.166;16.922;2023-05-07T01:04:33;9.18;;;5.78;;
76667;SDS011;65585;51.166;16.922;2023-05-07T01:06:59;8.10;;;5.10;;
76667;SDS011;65585;51.166;16.922;2023-05-07T01:09:27;7.90;;;5.35;;
76667;SDS011;65585;51.166;16.922;2023-05-07T01:11:53;7.82;;;5.45;;
76667;SDS011;65585;51.166;16.922;2023-05-07T01:14:21;6.75;;;5.07;;
76667;SDS011;65585;51.166;16.922;2023-05-07T01:16:47;6.55;;;5.25;;
76667;SDS011;65585;51.166;16.922;2023-05-07T01:19:14;8.68;;;6.22;;
76667;SDS011;65585;51.166;16.922;2023-05-07T01:21:44;9.15;;;6.18;;
76667;SDS011;65585;51.166;16.922;2023-05-07T01:24:13;8.20;;;5.93;;
76667;SDS011;65585;51.166;16.922;2023-05-07T01:26:41;10.18;;;6.38;;
76667;SDS011;65585;51.166;16.922;2023-05-07T01:29:09;10.10;;;6.47;;
76667;SDS011;65585;51.166;16.922;2023-05-07T01:31:35;7.82;;;5.97;;
76667;SDS011;65585;51.166;16.922;2023-05-07T01:34:02;8.02;;;6.05;;
76667;SDS011;65585;51.166;16.922;2023-05-07T01:36:29;11.23;;;7.07;;
76667;SDS011;65585;51.166;16.922;2023-05-07T01:38:56;9.20;;;5.97;;
76667;SDS011;65585;51.166;16.922;2023-05-07T01:41:23;7.82;;;5.65;;
76667;SDS011;65585;51.166;16.922;2023-05-07T01:43:50;8.10;;;5.63;;
76667;SDS011;65585;51.166;16.922;2023-05-07T01:46:17;10.00;;;6.65;;
76667;SDS011;65585;51.166;16.922;2023-05-07T01:48:45;9.65;;;6.28;;
76667;SDS011;65585;51.166;16.922;2023-05-07T01:51:11;9.40;;;6.50;;
76667;SDS011;65585;51.166;16.922;2023-05-07T01:53:39;10.63;;;6.03;;
76667;SDS011;65585;51.166;16.922;2023-05-07T01:56:06;9.68;;;5.93;;
76667;SDS011;65585;51.166;16.922;2023-05-07T01:58:32;6.97;;;5.50;;
76667;SDS011;65585;51.166;16.922;2023-05-07T02:00:59;9.70;;;5.75;;
76667;SDS011;65585;51.166;16.922;2023-05-07T02:03:25;10.30;;;5.53;;
76667;SDS011;65585;51.166;16.922;2023-05-07T02:05:51;7.80;;;5.38;;
76667;SDS011;65585;51.166;16.922;2023-05-07T02:08:17;7.07;;;5.70;;
76667;SDS011;65585;51.166;16.922;2023-05-07T02:10:43;6.72;;;4.88;;
76667;SDS011;65585;51.166;16.922;2023-05-07T02:13:10;7.40;;;5.75;;
76667;SDS011;65585;51.166;16.922;2023-05-07T02:15:36;7.55;;;5.82;;
76667;SDS011;65585;51.166;16.922;2023-05-07T02:18:06;8.93;;;6.43;;
76667;SDS011;65585;51.166;16.922;2023-05-07T02:20:33;7.45;;;5.90;;
76667;SDS011;65585;51.166;16.922;2023-05-07T02:22:59;8.20;;;5.32;;
76667;SDS011;65585;51.166;16.922;2023-05-07T02:25:25;7.90;;;6.00;;
76667;SDS011;65585;51.166;16.922;2023-05-07T02:27:52;8.35;;;6.03;;
76667;SDS011;65585;51.166;16.922;2023-05-07T02:30:18;7.40;;;6.28;;
76667;SDS011;65585;51.166;16.922;2023-05-07T02:32:45;11.98;;;6.88;;
76667;SDS011;65585;51.166;16.922;2023-05-07T02:35:11;8.77;;;6.97;;
76667;SDS011;65585;51.166;16.922;2023-05-07T02:37:37;9.25;;;6.82;;
76667;SDS011;65585;51.166;16.922;2023-05-07T02:40:03;10.48;;;7.18;;
76667;SDS011;65585;51.166;16.922;2023-05-07T02:42:30;10.23;;;7.30;;
76667;SDS011;65585;51.166;16.922;2023-05-07T02:44:56;8.80;;;7.20;;
76667;SDS011;65585;51.166;16.922;2023-05-07T02:47:22;9.68;;;7.10;;
76667;SDS011;65585;51.166;16.922;2023-05-07T02:49:48;11.27;;;6.93;;
76667;SDS011;65585;51.166;16.922;2023-05-07T02:52:15;10.70;;;7.05;;
76667;SDS011;65585;51.166;16.922;2023-05-07T02:54:41;10.27;;;6.38;;
76667;SDS011;65585;51.166;16.922;2023-05-07T02:57:07;11.23;;;7.32;;
76667;SDS011;65585;51.166;16.922;2023-05-07T02:59:33;10.18;;;6.85;;
76667;SDS011;65585;51.166;16.922;2023-05-07T03:01:59;11.25;;;7.43;;
76667;SDS011;65585;51.166;16.922;2023-05-07T03:04:26;10.20;;;6.55;;
76667;SDS011;65585;51.166;16.922;2023-05-07T03:06:52;9.05;;;6.63;;
76667;SDS011;65585;51.166;16.922;2023-05-07T03:09:18;8.68;;;6.63;;
76667;SDS011;65585;51.166;16.922;2023-05-07T03:11:45;7.90;;;6.38;;
76667;SDS011;65585;51.166;16.922;2023-05-07T03:14:10;8.70;;;6.30;;
76667;SDS011;65585;51.166;16.922;2023-05-07T03:16:37;12.75;;;7.40;;
76667;SDS011;65585;51.166;16.922;2023-05-07T03:19:03;9.85;;;6.38;;
76667;SDS011;65585;51.166;16.922;2023-05-07T03:21:30;10.30;;;6.82;;
76667;SDS011;65585;51.166;16.922;2023-05-07T03:23:56;12.85;;;7.30;;
76667;SDS011;65585;51.166;16.922;2023-05-07T03:26:22;10.63;;;7.05;;
76667;SDS011;65585;51.166;16.922;2023-05-07T03:28:48;8.38;;;6.35;;
76667;SDS011;65585;51.166;16.922;2023-05-07T03:31:14;7.40;;;6.05;;
76667;SDS011;65585;51.166;16.922;2023-05-07T03:33:50;14.82;;;6.85;;
76667;SDS011;65585;51.166;16.922;2023-05-07T03:36:17;8.95;;;6.65;;
76667;SDS011;65585;51.166;16.922;2023-05-07T03:38:43;9.57;;;6.82;;
76667;SDS011;65585;51.166;16.922;2023-05-07T03:41:10;10.13;;;7.22;;
76667;SDS011;65585;51.166;16.922;2023-05-07T03:43:36;10.32;;;6.60;;
76667;SDS011;65585;51.166;16.922;2023-05-07T03:46:02;10.63;;;7.35;;
76667;SDS011;65585;51.166;16.922;2023-05-07T03:48:28;8.93;;;7.07;;
76667;SDS011;65585;51.166;16.922;2023-05-07T03:50:55;8.77;;;6.70;;
76667;SDS011;65585;51.166;16.922;2023-05-07T03:53:22;8.07;;;6.55;;
76667;SDS011;65585;51.166;16.922;2023-05-07T03:55:48;10.07;;;7.20;;
76667;SDS011;65585;51.166;16.922;2023-05-07T03:58:15;8.15;;;6.95;;
76667;SDS011;65585;51.166;16.922;2023-05-07T04:00:41;10.27;;;7.30;;
76667;SDS011;65585;51.166;16.922;2023-05-07T04:03:07;11.70;;;8.52;;
76667;SDS011;65585;51.166;16.922;2023-05-07T04:05:34;12.30;;;8.32;;
76667;SDS011;65585;51.166;16.922;2023-05-07T04:08:00;12.38;;;8.98;;
76667;SDS011;65585;51.166;16.922;2023-05-07T04:10:29;12.50;;;8.52;;
76667;SDS011;65585;51.166;16.922;2023-05-07T04:12:55;12.25;;;7.68;;
76667;SDS011;65585;51.166;16.922;2023-05-07T04:15:25;11.35;;;8.60;;
76667;SDS011;65585;51.166;16.922;2023-05-07T04:17:51;13.38;;;8.23;;
76667;SDS011;65585;51.166;16.922;2023-05-07T04:20:17;10.38;;;8.48;;
76667;SDS011;65585;51.166;16.922;2023-05-07T04:22:43;11.98;;;9.10;;
76667;SDS011;65585;51.166;16.922;2023-05-07T04:25:09;11.18;;;8.48;;
76667;SDS011;65585;51.166;16.922;2023-05-07T04:27:35;11.70;;;8.15;;
76667;SDS011;65585;51.166;16.922;2023-05-07T04:30:02;11.35;;;7.93;;
76667;SDS011;65585;51.166;16.922;2023-05-07T04:32:28;10.82;;;7.93;;
76667;SDS011;65585;51.166;16.922;2023-05-07T04:34:55;13.07;;;8.73;;
76667;SDS011;65585;51.166;16.922;2023-05-07T04:37:22;9.98;;;7.18;;
76667;SDS011;65585;51.166;16.922;2023-05-07T04:39:48;9.60;;;7.80;;
76667;SDS011;65585;51.166;16.922;2023-05-07T04:42:14;11.27;;;7.82;;
76667;SDS011;65585;51.166;16.922;2023-05-07T04:44:41;9.10;;;7.22;;
76667;SDS011;65585;51.166;16.922;2023-05-07T04:47:07;10.32;;;7.25;;
76667;SDS011;65585;51.166;16.922;2023-05-07T04:49:34;10.65;;;7.65;;
76667;SDS011;65585;51.166;16.922;2023-05-07T04:52:00;8.70;;;7.25;;
76667;SDS011;65585;51.166;16.922;2023-05-07T04:54:26;8.15;;;6.78;;
76667;SDS011;65585;51.166;16.922;2023-05-07T04:56:52;9.25;;;6.55;;
76667;SDS011;65585;51.166;16.922;2023-05-07T04:59:19;8.68;;;5.88;;
76667;SDS011;65585;51.166;16.922;2023-05-07T05:01:45;8.40;;;6.22;;
76667;SDS011;65585;51.166;16.922;2023-05-07T05:04:12;7.05;;;5.85;;
76667;SDS011;65585;51.166;16.922;2023-05-07T05:06:38;8.65;;;5.88;;
76667;SDS011;65585;51.166;16.922;2023-05-07T05:09:05;7.90;;;5.10;;
76667;SDS011;65585;51.166;16.922;2023-05-07T05:11:31;6.07;;;5.00;;
76667;SDS011;65585;51.166;16.922;2023-05-07T05:13:58;6.20;;;5.28;;
76667;SDS011;65585;51.166;16.922;2023-05-07T05:16:25;8.63;;;5.68;;
76667;SDS011;65585;51.166;16.922;2023-05-07T05:18:51;6.20;;;4.97;;
76667;SDS011;65585;51.166;16.922;2023-05-07T05:21:17;6.55;;;4.88;;
76667;SDS011;65585;51.166;16.922;2023-05-07T05:23:43;7.63;;;5.20;;
76667;SDS011;65585;51.166;16.922;2023-05-07T05:26:09;8.43;;;5.43;;
76667;SDS011;65585;51.166;16.922;2023-05-07T05:28:36;7.63;;;5.60;;
76667;SDS011;65585;51.166;16.922;2023-05-07T05:31:05;7.85;;;5.75;;
76667;SDS011;65585;51.166;16.922;2023-05-07T05:33:31;7.18;;;4.85;;
76667;SDS011;65585;51.166;16.922;2023-05-07T05:35:57;5.88;;;4.35;;
76667;SDS011;65585;51.166;16.922;2023-05-07T05:38:24;5.43;;;4.65;;
76667;SDS011;65585;51.166;16.922;2023-05-07T05:40:50;6.30;;;4.75;;
76667;SDS011;65585;51.166;16.922;2023-05-07T05:43:16;6.88;;;4.55;;
76667;SDS011;65585;51.166;16.922;2023-05-07T05:45:42;5.45;;;4.43;;
76667;SDS011;65585;51.166;16.922;2023-05-07T05:48:08;6.22;;;4.75;;
76667;SDS011;65585;51.166;16.922;2023-05-07T05:50:34;6.65;;;4.63;;
76667;SDS011;65585;51.166;16.922;2023-05-07T05:53:03;5.30;;;4.22;;
76667;SDS011;65585;51.166;16.922;2023-05-07T05:55:30;6.07;;;4.38;;
76667;SDS011;65585;51.166;16.922;2023-05-07T05:57:59;7.32;;;4.30;;
76667;SDS011;65585;51.166;16.922;2023-05-07T06:00:25;6.57;;;4.38;;
76667;SDS011;65585;51.166;16.922;2023-05-07T06:02:52;6.68;;;5.32;;
76667;SDS011;65585;51.166;16.922;2023-05-07T06:05:18;6.15;;;4.35;;
76667;SDS011;65585;51.166;16.922;2023-05-07T06:07:45;6.72;;;5.13;;
76667;SDS011;65585;51.166;16.922;2023-05-07T06:10:11;6.28;;;4.80;;
76667;SDS011;65585;51.166;16.922;2023-05-07T06:12:37;7.35;;;4.43;;
76667;SDS011;65585;51.166;16.922;2023-05-07T06:15:03;6.03;;;4.32;;
76667;SDS011;65585;51.166;16.922;2023-05-07T06:17:30;5.97;;;4.10;;
76667;SDS011;65585;51.166;16.922;2023-05-07T06:19:56;4.90;;;4.40;;
76667;SDS011;65585;51.166;16.922;2023-05-07T06:22:22;5.47;;;4.70;;
76667;SDS011;65585;51.166;16.922;2023-05-07T06:24:48;5.47;;;4.65;;
76667;SDS011;65585;51.166;16.922;2023-05-07T06:27:14;4.68;;;3.80;;
76667;SDS011;65585;51.166;16.922;2023-05-07T06:29:40;7.03;;;5.15;;
76667;SDS011;65585;51.166;16.922;2023-05-07T06:32:10;4.80;;;3.97;;
76667;SDS011;65585;51.166;16.922;2023-05-07T06:34:37;6.20;;;3.72;;
76667;SDS011;65585;51.166;16.922;2023-05-07T06:37:04;6.15;;;5.07;;
76667;SDS011;65585;51.166;16.922;2023-05-07T06:39:30;6.22;;;4.60;;
76667;SDS011;65585;51.166;16.922;2023-05-07T06:41:57;5.95;;;4.72;;
76667;SDS011;65585;51.166;16.922;2023-05-07T06:44:23;7.35;;;4.85;;
76667;SDS011;65585;51.166;16.922;2023-05-07T06:46:49;5.72;;;4.75;;
76667;SDS011;65585;51.166;16.922;2023-05-07T06:49:15;5.20;;;4.40;;
76667;SDS011;65585;51.166;16.922;2023-05-07T06:51:42;6.15;;;5.25;;
76667;SDS011;65585;51.166;16.922;2023-05-07T06:54:08;7.53;;;5.25;;
76667;SDS011;65585;51.166;16.922;2023-05-07T06:56:34;9.13;;;5.80;;
76667;SDS011;65585;51.166;16.922;2023-05-07T06:59:01;7.47;;;5.60;;
76667;SDS011;65585;51.166;16.922;2023-05-07T07:01:28;7.35;;;5.38;;
76667;SDS011;65585;51.166;16.922;2023-05-07T07:03:54;15.63;;;8.18;;
76667;SDS011;65585;51.166;16.922;2023-05-07T07:06:24;10.90;;;7.68;;
76667;SDS011;65585;51.166;16.922;2023-05-07T07:08:50;4.80;;;4.30;;
76667;SDS011;65585;51.166;16.922;2023-05-07T07:11:17;5.85;;;4.28;;
76667;SDS011;65585;51.166;16.922;2023-05-07T07:13:43;6.20;;;3.70;;
76667;SDS011;65585;51.166;16.922;2023-05-07T07:16:09;4.35;;;3.55;;
76667;SDS011;65585;51.166;16.922;2023-05-07T07:18:35;3.70;;;3.20;;
76667;SDS011;65585;51.166;16.922;2023-05-07T07:21:01;5.72;;;4.00;;
76667;SDS011;65585;51.166;16.922;2023-05-07T07:23:27;4.20;;;3.03;;
76667;SDS011;65585;51.166;16.922;2023-05-07T07:25:54;4.95;;;3.05;;
76667;SDS011;65585;51.166;16.922;2023-05-07T07:28:23;3.60;;;2.92;;
76667;SDS011;65585;51.166;16.922;2023-05-07T07:30:50;4.38;;;2.78;;
76667;SDS011;65585;51.166;16.922;2023-05-07T07:33:15;4.57;;;3.00;;
76667;SDS011;65585;51.166;16.922;2023-05-07T07:35:42;3.33;;;2.85;;
76667;SDS011;65585;51.166;16.922;2023-05-07T07:38:08;3.65;;;2.83;;
76667;SDS011;65585;51.166;16.922;2023-05-07T07:40:34;3.58;;;2.88;;
76667;SDS011;65585;51.166;16.922;2023-05-07T07:43:00;3.25;;;2.67;;
76667;SDS011;65585;51.166;16.922;2023-05-07T07:45:27;3.42;;;2.90;;
76667;SDS011;65585;51.166;16.922;2023-05-07T07:47:54;3.70;;;3.03;;
76667;SDS011;65585;51.166;16.922;2023-05-07T07:50:21;5.47;;;3.72;;
76667;SDS011;65585;51.166;16.922;2023-05-07T07:52:47;5.68;;;3.67;;
76667;SDS011;65585;51.166;16.922;2023-05-07T07:55:14;4.78;;;3.65;;
76667;SDS011;65585;51.166;16.922;2023-05-07T07:57:43;5.95;;;4.50;;
76667;SDS011;65585;51.166;16.922;2023-05-07T08:00:10;5.05;;;3.97;;
76667;SDS011;65585;51.166;16.922;2023-05-07T08:02:36;5.50;;;4.25;;
76667;SDS011;65585;51.166;16.922;2023-05-07T08:05:03;5.93;;;4.38;;
76667;SDS011;65585;51.166;16.922;2023-05-07T08:07:29;5.00;;;4.50;;
76667;SDS011;65585;51.166;16.922;2023-05-07T08:09:56;5.88;;;4.45;;
76667;SDS011;65585;51.166;16.922;2023-05-07T08:12:22;5.22;;;3.92;;
76667;SDS011;65585;51.166;16.922;2023-05-07T08:14:49;5.63;;;4.13;;
76667;SDS011;65585;51.166;16.922;2023-05-07T08:17:15;6.80;;;4.30;;
76667;SDS011;65585;51.166;16.922;2023-05-07T08:19:42;6.00;;;4.75;;
76667;SDS011;65585;51.166;16.922;2023-05-07T08:22:09;5.22;;;3.90;;
76667;SDS011;65585;51.166;16.922;2023-05-07T08:24:36;5.93;;;4.70;;
76667;SDS011;65585;51.166;16.922;2023-05-07T08:27:05;7.15;;;5.00;;
76667;SDS011;65585;51.166;16.922;2023-05-07T08:29:32;5.82;;;4.93;;
76667;SDS011;65585;51.166;16.922;2023-05-07T08:31:58;6.35;;;4.78;;
76667;SDS011;65585;51.166;16.922;2023-05-07T08:34:25;5.90;;;4.70;;
76667;SDS011;65585;51.166;16.922;2023-05-07T08:36:54;5.70;;;4.65;;
76667;SDS011;65585;51.166;16.922;2023-05-07T08:39:21;5.50;;;4.35;;
76667;SDS011;65585;51.166;16.922;2023-05-07T08:41:50;6.93;;;4.97;;
76667;SDS011;65585;51.166;16.922;2023-05-07T08:44:22;5.57;;;4.50;;
76667;SDS011;65585;51.166;16.922;2023-05-07T08:46:48;8.27;;;4.90;;
76667;SDS011;65585;51.166;16.922;2023-05-07T08:49:17;7.28;;;4.90;;
76667;SDS011;65585;51.166;16.922;2023-05-07T08:51:46;6.93;;;5.18;;
76667;SDS011;65585;51.166;16.922;2023-05-07T08:54:18;6.03;;;4.80;;
76667;SDS011;65585;51.166;16.922;2023-05-07T08:56:45;6.32;;;4.63;;
76667;SDS011;65585;51.166;16.922;2023-05-07T08:59:11;6.80;;;5.40;;
76667;SDS011;65585;51.166;16.922;2023-05-07T09:01:37;8.10;;;5.18;;
76667;SDS011;65585;51.166;16.922;2023-05-07T09:04:04;5.93;;;4.50;;
76667;SDS011;65585;51.166;16.922;2023-05-07T09:06:31;7.13;;;5.03;;
76667;SDS011;65585;51.166;16.922;2023-05-07T09:08:57;5.88;;;4.28;;
76667;SDS011;65585;51.166;16.922;2023-05-07T09:11:26;7.95;;;5.30;;
76667;SDS011;65585;51.166;16.922;2023-05-07T09:13:54;6.45;;;5.15;;
76667;SDS011;65585;51.166;16.922;2023-05-07T09:16:21;5.65;;;4.82;;
76667;SDS011;65585;51.166;16.922;2023-05-07T09:18:50;5.78;;;4.47;;
76667;SDS011;65585;51.166;16.922;2023-05-07T09:21:17;6.18;;;4.72;;
76667;SDS011;65585;51.166;16.922;2023-05-07T09:23:45;8.10;;;4.75;;
76667;SDS011;65585;51.166;16.922;2023-05-07T09:26:23;6.05;;;4.45;;
76667;SDS011;65585;51.166;16.922;2023-05-07T09:28:51;6.10;;;4.82;;
76667;SDS011;65585;51.166;16.922;2023-05-07T09:31:17;6.93;;;4.45;;
76667;SDS011;65585;51.166;16.922;2023-05-07T09:33:43;8.55;;;5.20;;
76667;SDS011;65585;51.166;16.922;2023-05-07T09:36:10;5.15;;;4.15;;
76667;SDS011;65585;51.166;16.922;2023-05-07T09:38:36;8.05;;;5.15;;
76667;SDS011;65585;51.166;16.922;2023-05-07T09:41:07;8.38;;;5.47;;
76667;SDS011;65585;51.166;16.922;2023-05-07T09:43:36;6.93;;;4.82;;
76667;SDS011;65585;51.166;16.922;2023-05-07T09:46:07;8.38;;;5.43;;
76667;SDS011;65585;51.166;16.922;2023-05-07T09:48:42;7.32;;;4.63;;
76667;SDS011;65585;51.166;16.922;2023-05-07T09:51:21;4.72;;;4.20;;
76667;SDS011;65585;51.166;16.922;2023-05-07T09:53:48;5.80;;;4.68;;
76667;SDS011;65585;51.166;16.922;2023-05-07T09:56:16;5.70;;;5.05;;
76667;SDS011;65585;51.166;16.922;2023-05-07T09:58:43;5.78;;;4.88;;
76667;SDS011;65585;51.166;16.922;2023-05-07T10:01:10;6.13;;;4.82;;
76667;SDS011;65585;51.166;16.922;2023-05-07T10:03:39;7.35;;;4.30;;
76667;SDS011;65585;51.166;16.922;2023-05-07T10:06:07;6.45;;;4.72;;
76667;SDS011;65585;51.166;16.922;2023-05-07T10:08:35;5.75;;;4.32;;
76667;SDS011;65585;51.166;16.922;2023-05-07T10:11:01;5.90;;;4.32;;
76667;SDS011;65585;51.166;16.922;2023-05-07T10:13:30;5.47;;;4.75;;
76667;SDS011;65585;51.166;16.922;2023-05-07T10:15:56;4.75;;;4.10;;
76667;SDS011;65585;51.166;16.922;2023-05-07T10:18:23;5.53;;;4.38;;
76667;SDS011;65585;51.166;16.922;2023-05-07T10:20:55;6.70;;;4.75;;
76667;SDS011;65585;51.166;16.922;2023-05-07T10:23:23;5.40;;;4.28;;
76667;SDS011;65585;51.166;16.922;2023-05-07T10:25:49;5.78;;;4.20;;
76667;SDS011;65585;51.166;16.922;2023-05-07T10:28:16;5.38;;;4.18;;
76667;SDS011;65585;51.166;16.922;2023-05-07T10:33:29;6.22;;;4.40;;
76667;SDS011;65585;51.166;16.922;2023-05-07T10:35:57;4.93;;;3.95;;
76667;SDS011;65585;51.166;16.922;2023-05-07T10:38:25;6.32;;;4.00;;
76667;SDS011;65585;51.166;16.922;2023-05-07T10:40:52;10.48;;;6.13;;
76667;SDS011;65585;51.166;16.922;2023-05-07T10:43:18;4.88;;;3.72;;
76667;SDS011;65585;51.166;16.922;2023-05-07T10:46:08;4.63;;;3.55;;
76667;SDS011;65585;51.166;16.922;2023-05-07T10:49:29;5.15;;;3.90;;
76667;SDS011;65585;51.166;16.922;2023-05-07T10:51:34;4.97;;;4.00;;
76667;SDS011;65585;51.166;16.922;2023-05-07T10:56:40;6.43;;;3.55;;
76667;SDS011;65585;51.166;16.922;2023-05-07T11:04:32;5.00;;;3.90;;
76667;SDS011;65585;51.166;16.922;2023-05-07T11:10:17;4.85;;;3.55;;
76667;SDS011;65585;51.166;16.922;2023-05-07T11:17:59;5.15;;;3.42;;
76667;SDS011;65585;51.166;16.922;2023-05-07T11:26:04;5.63;;;4.18;;
76667;SDS011;65585;51.166;16.922;2023-05-07T11:28:31;6.07;;;3.78;;
76667;SDS011;65585;51.166;16.922;2023-05-07T11:31:01;5.55;;;3.70;;
76667;SDS011;65585;51.166;16.922;2023-05-07T11:33:28;4.97;;;3.60;;
76667;SDS011;65585;51.166;16.922;2023-05-07T11:35:56;6.18;;;3.70;;
76667;SDS011;65585;51.166;16.922;2023-05-07T11:38:22;4.07;;;3.67;;
76667;SDS011;65585;51.166;16.922;2023-05-07T11:40:49;4.68;;;3.70;;
76667;SDS011;65585;51.166;16.922;2023-05-07T11:43:16;5.35;;;4.28;;
76667;SDS011;65585;51.166;16.922;2023-05-07T11:45:47;6.57;;;3.95;;
76667;SDS011;65585;51.166;16.922;2023-05-07T11:48:14;7.70;;;5.00;;
76667;SDS011;65585;51.166;16.922;2023-05-07T11:50:51;6.88;;;4.57;;
76667;SDS011;65585;51.166;16.922;2023-05-07T11:53:24;7.43;;;5.00;;
76667;SDS011;65585;51.166;16.922;2023-05-07T11:55:57;6.68;;;4.82;;
76667;SDS011;65585;51.166;16.922;2023-05-07T11:58:24;6.13;;;4.75;;
76667;SDS011;65585;51.166;16.922;2023-05-07T12:00:53;5.38;;;3.97;;
76667;SDS011;65585;51.166;16.922;2023-05-07T12:03:20;5.47;;;4.32;;
76667;SDS011;65585;51.166;16.922;2023-05-07T12:05:47;5.82;;;3.75;;
76667;SDS011;65585;51.166;16.922;2023-05-07T12:08:17;4.57;;;3.95;;
76667;SDS011;65585;51.166;16.922;2023-05-07T12:10:46;4.20;;;3.35;;
76667;SDS011;65585;51.166;16.922;2023-05-07T12:15:46;4.35;;;3.72;;
76667;SDS011;65585;51.166;16.922;2023-05-07T12:18:16;3.80;;;3.35;;
76667;SDS011;65585;51.166;16.922;2023-05-07T12:20:43;4.53;;;3.60;;
76667;SDS011;65585;51.166;16.922;2023-05-07T12:23:09;4.53;;;3.50;;
76667;SDS011;65585;51.166;16.922;2023-05-07T12:25:39;4.47;;;3.83;;
76667;SDS011;65585;51.166;16.922;2023-05-07T12:28:12;5.00;;;4.20;;
76667;SDS011;65585;51.166;16.922;2023-05-07T12:30:45;5.07;;;3.83;;
76667;SDS011;65585;51.166;16.922;2023-05-07T12:33:15;9.60;;;5.45;;
76667;SDS011;65585;51.166;16.922;2023-05-07T12:35:43;5.15;;;4.43;;
76667;SDS011;65585;51.166;16.922;2023-05-07T12:38:10;7.18;;;4.22;;
76667;SDS011;65585;51.166;16.922;2023-05-07T12:40:42;4.35;;;3.67;;
76667;SDS011;65585;51.166;16.922;2023-05-07T12:43:18;4.20;;;3.65;;
76667;SDS011;65585;51.166;16.922;2023-05-07T12:45:55;5.07;;;3.30;;
76667;SDS011;65585;51.166;16.922;2023-05-07T12:48:31;7.65;;;4.18;;
76667;SDS011;65585;51.166;16.922;2023-05-07T12:51:01;4.38;;;3.92;;
76667;SDS011;65585;51.166;16.922;2023-05-07T12:53:28;4.65;;;3.90;;
76667;SDS011;65585;51.166;16.922;2023-05-07T12:55:58;3.80;;;3.30;;
76667;SDS011;65585;51.166;16.922;2023-05-07T13:00:51;5.85;;;4.20;;
76667;SDS011;65585;51.166;16.922;2023-05-07T13:03:21;4.93;;;4.43;;
76667;SDS011;65585;51.166;16.922;2023-05-07T13:05:52;5.03;;;4.38;;
76667;SDS011;65585;51.166;16.922;2023-05-07T13:08:28;5.38;;;4.32;;
76667;SDS011;65585;51.166;16.922;2023-05-07T13:10:59;5.88;;;4.60;;
76667;SDS011;65585;51.166;16.922;2023-05-07T13:13:31;5.18;;;3.90;;
76667;SDS011;65585;51.166;16.922;2023-05-07T13:15:59;20.67;;;11.02;;
76667;SDS011;65585;51.166;16.922;2023-05-07T13:18:25;10.85;;;8.10;;
76667;SDS011;65585;51.166;16.922;2023-05-07T13:20:52;10.35;;;8.07;;
76667;SDS011;65585;51.166;16.922;2023-05-07T13:23:19;10.52;;;7.57;;
76667;SDS011;65585;51.166;16.922;2023-05-07T13:25:45;7.38;;;5.47;;
76667;SDS011;65585;51.166;16.922;2023-05-07T13:28:11;9.32;;;6.80;;
76667;SDS011;65585;51.166;16.922;2023-05-07T13:30:38;9.38;;;6.95;;
76667;SDS011;65585;51.166;16.922;2023-05-07T13:33:09;8.15;;;6.63;;
76667;SDS011;65585;51.166;16.922;2023-05-07T13:35:35;6.00;;;5.22;;
76667;SDS011;65585;51.166;16.922;2023-05-07T13:38:01;6.72;;;5.15;;
76667;SDS011;65585;51.166;16.922;2023-05-07T13:40:27;6.35;;;5.00;;
76667;SDS011;65585;51.166;16.922;2023-05-07T13:42:53;7.25;;;5.15;;
76667;SDS011;65585;51.166;16.922;2023-05-07T13:45:20;5.85;;;4.85;;
76667;SDS011;65585;51.166;16.922;2023-05-07T13:47:46;6.35;;;4.50;;
76667;SDS011;65585;51.166;16.922;2023-05-07T13:50:12;5.78;;;4.90;;
76667;SDS011;65585;51.166;16.922;2023-05-07T13:52:42;6.53;;;5.47;;
76667;SDS011;65585;51.166;16.922;2023-05-07T13:55:20;5.45;;;4.93;;
76667;SDS011;65585;51.166;16.922;2023-05-07T13:57:53;7.70;;;5.72;;
76667;SDS011;65585;51.166;16.922;2023-05-07T14:00:21;5.53;;;4.80;;
76667;SDS011;65585;51.166;16.922;2023-05-07T14:02:47;6.90;;;4.05;;
76667;SDS011;65585;51.166;16.922;2023-05-07T14:05:14;8.80;;;5.05;;
76667;SDS011;65585;51.166;16.922;2023-05-07T14:07:40;6.18;;;3.97;;
76667;SDS011;65585;51.166;16.922;2023-05-07T14:10:06;5.43;;;3.90;;
76667;SDS011;65585;51.166;16.922;2023-05-07T14:12:32;4.32;;;3.75;;
76667;SDS011;65585;51.166;16.922;2023-05-07T14:14:59;5.35;;;3.90;;
76667;SDS011;65585;51.166;16.922;2023-05-07T14:17:25;4.53;;;3.53;;
76667;SDS011;65585;51.166;16.922;2023-05-07T14:19:53;5.25;;;3.90;;
76667;SDS011;65585;51.166;16.922;2023-05-07T14:22:22;4.47;;;3.92;;
76667;SDS011;65585;51.166;16.922;2023-05-07T14:24:49;4.10;;;3.45;;
76667;SDS011;65585;51.166;16.922;2023-05-07T14:27:15;5.05;;;3.63;;
76667;SDS011;65585;51.166;16.922;2023-05-07T14:29:42;5.18;;;4.00;;
76667;SDS011;65585;51.166;16.922;2023-05-07T14:32:08;6.43;;;4.47;;
76667;SDS011;65585;51.166;16.922;2023-05-07T14:34:35;7.47;;;4.03;;
76667;SDS011;65585;51.166;16.922;2023-05-07T14:37:01;5.70;;;3.67;;
76667;SDS011;65585;51.166;16.922;2023-05-07T14:39:27;4.85;;;4.10;;
76667;SDS011;65585;51.166;16.922;2023-05-07T14:41:53;5.25;;;3.90;;
76667;SDS011;65585;51.166;16.922;2023-05-07T14:44:20;7.65;;;3.83;;
76667;SDS011;65585;51.166;16.922;2023-05-07T14:46:46;6.38;;;4.57;;
76667;SDS011;65585;51.166;16.922;2023-05-07T14:49:14;5.75;;;3.55;;
76667;SDS011;65585;51.166;16.922;2023-05-07T14:51:43;4.78;;;3.58;;
76667;SDS011;65585;51.166;16.922;2023-05-07T14:54:13;4.97;;;3.65;;
76667;SDS011;65585;51.166;16.922;2023-05-07T14:56:39;5.35;;;4.07;;
76667;SDS011;65585;51.166;16.922;2023-05-07T14:59:06;4.82;;;3.95;;
76667;SDS011;65585;51.166;16.922;2023-05-07T15:01:33;4.95;;;4.10;;
76667;SDS011;65585;51.166;16.922;2023-05-07T15:04:00;5.75;;;3.90;;